Time;durP1;ratioP1;P1;durP2;ratioP2;P2;SDS_P1;SDS_P2;PMS_P1;PMS_P2;Temp;Humidity;BMP_temperature;BMP_pressure;BME280_temperature;BME280_humidity;BME280_pressure;Samples;Min_cycle;Max_cycle;Signal;HPM_P1;HPM_P2
2023/01/03 00:02:03;;;;;;;7.57;3.40;;;;;;;0.75;91.91;96464.42;1787146;80;21264;-68
2023/01/03 00:04:30;;;;;;;3.00;2.60;;;;;;;0.75;91.92;96465.72;1786628;80;20963;-68
2023/01/03 00:06:57;;;;;;;2.67;2.20;;;;;;;0.76;92.10;96464.91;1787303;80;20998;-68
2023/01/03 00:09:24;;;;;;;3.83;2.60;;;;;;;0.68;91.63;96464.17;1787064;80;21041;-69
2023/01/03 00:14:43;;;;;;;4.13;3.20;;;;;;;0.67;92.38;96459.83;1786903;80;21083;-69
2023/01/03 00:20:01;;;;;;;5.10;3.27;;;;;;;0.67;92.34;96473.69;1787178;80;20987;-69
2023/01/03 00:22:31;;;;;;;4.70;3.40;;;;;;;0.60;91.89;96476.91;1787291;80;21007;-70
2023/01/03 00:24:57;;;;;;;3.53;2.77;;;;;;;0.59;92.13;96474.73;1786736;80;21031;-70
2023/01/03 00:27:24;;;;;;;4.73;2.87;;;;;;;0.61;92.33;96485.18;1787254;80;21053;-70
2023/01/03 00:29:51;;;;;;;6.60;3.80;;;;;;;0.61;92.36;96486.48;1786905;80;21018;-70
2023/01/03 00:32:17;;;;;;;5.30;3.53;;;;;;;0.68;92.73;96492.74;1787099;80;21149;-70
2023/01/03 00:34:45;;;;;;;7.80;4.93;;;;;;;0.61;92.25;96487.77;1787118;80;21050;-70
2023/01/03 00:37:14;;;;;;;5.33;3.30;;;;;;;0.54;91.95;96489.69;1754912;80;21035;-70
2023/01/03 00:39:41;;;;;;;6.23;3.60;;;;;;;0.52;91.93;96491.34;1786729;80;21007;-69
2023/01/03 00:42:07;;;;;;;5.93;3.63;;;;;;;0.52;92.21;96493.52;1786949;80;21078;-70
2023/01/03 00:44:34;;;;;;;7.07;2.53;;;;;;;0.52;92.32;96490.05;1787240;80;21547;-69
2023/01/03 00:47:01;;;;;;;4.47;2.83;;;;;;;0.49;92.07;96492.12;1787089;80;21473;-69
2023/01/03 00:49:28;;;;;;;4.13;2.53;;;;;;;0.53;92.30;96491.80;1787047;80;21105;-70
2023/01/03 00:51:55;;;;;;;26.43;13.40;;;;;;;0.53;92.22;96489.20;1787114;80;21504;-69
2023/01/03 00:54:23;;;;;;;3.17;2.57;;;;;;;0.53;92.14;96490.50;1792072;80;21492;-69
2023/01/03 00:56:50;;;;;;;4.60;3.47;;;;;;;0.51;92.16;96485.70;1795556;80;21022;-69
2023/01/03 00:59:19;;;;;;;5.23;3.13;;;;;;;0.54;92.41;96490.98;1764703;80;21457;-69
2023/01/03 01:01:50;;;;;;;4.60;3.20;;;;;;;0.57;92.41;96491.09;1795358;80;21078;-69
2023/01/03 01:04:24;;;;;;;4.93;3.30;;;;;;;0.61;92.75;96485.18;1795182;80;21014;-69
2023/01/03 01:06:55;;;;;;;4.03;2.80;;;;;;;0.62;92.54;96487.80;1795252;80;21262;-69
2023/01/03 01:09:30;;;;;;;4.10;2.97;;;;;;;0.63;92.69;96477.91;1795578;80;20959;-69
2023/01/03 01:11:56;;;;;;;4.53;2.80;;;;;;;0.63;92.58;96475.31;1795318;80;21007;-69
2023/01/03 01:14:27;;;;;;;46.73;20.87;;;;;;;0.63;92.77;96486.09;1795622;80;21055;-69
2023/01/03 01:17:00;;;;;;;41.40;18.10;;;;;;;0.56;92.72;96478.52;1795576;80;21018;-69
2023/01/03 01:19:41;;;;;;;20.43;6.90;;;;;;;0.53;92.54;96476.22;1795388;80;20994;-69
2023/01/03 01:22:09;;;;;;;25.17;11.00;;;;;;;0.45;92.08;96477.25;1764383;80;20999;-69
2023/01/03 01:24:36;;;;;;;7.80;4.77;;;;;;;0.43;92.71;96465.96;1795528;80;21006;-69
2023/01/03 01:27:03;;;;;;;14.60;8.07;;;;;;;0.35;92.13;96469.59;1795167;80;21022;-69
2023/01/03 01:29:30;;;;;;;16.57;8.50;;;;;;;0.33;92.35;96463.46;1795325;80;21003;-69
2023/01/03 01:31:56;;;;;;;9.17;5.93;;;;;;;0.26;92.10;96465.37;1795200;80;20991;-69
2023/01/03 01:34:23;;;;;;;7.57;4.10;;;;;;;0.31;92.76;96461.22;1795384;80;21017;-69
2023/01/03 01:36:59;;;;;;;11.00;5.73;;;;;;;0.34;93.05;96470.41;1794798;80;21014;-68
2023/01/03 01:39:28;;;;;;;8.30;5.27;;;;;;;0.36;93.23;96472.64;1795529;80;20963;-69
2023/01/03 01:45:02;;;;;;;4.40;2.70;;;;;;;0.36;92.77;96473.06;1795031;80;21480;-69
2023/01/03 01:47:49;;;;;;;8.63;4.50;;;;;;;0.38;92.87;96470.99;1795512;80;21017;-69
2023/01/03 01:50:39;;;;;;;13.33;6.30;;;;;;;0.38;92.76;96472.29;1795446;80;21034;-69
2023/01/03 01:53:11;;;;;;;9.17;4.80;;;;;;;0.41;92.98;96473.69;1795528;80;21445;-69
2023/01/03 01:55:46;;;;;;;11.27;5.13;;;;;;;0.37;92.74;96474.40;1795400;80;20967;-68
2023/01/03 01:58:13;;;;;;;14.13;7.27;;;;;;;0.36;93.90;96468.75;1795336;80;21492;-68
2023/01/03 02:00:42;;;;;;;8.00;4.43;;;;;;;0.37;93.82;96463.14;1795585;80;20982;-68
2023/01/03 02:03:10;;;;;;;11.10;6.50;;;;;;;0.38;93.37;96470.11;1795580;80;20995;-68
2023/01/03 02:05:42;;;;;;;9.07;4.20;;;;;;;0.38;93.93;96469.69;1795031;80;20998;-68
2023/01/03 02:08:08;;;;;;;9.53;5.30;;;;;;;0.36;93.30;96476.54;1794181;80;21026;-68
2023/01/03 02:11:02;;;;;;;7.40;4.70;;;;;;;0.36;93.57;96470.05;1795420;80;21038;-68
2023/01/03 02:13:43;;;;;;;8.13;4.83;;;;;;;0.33;93.14;96485.52;1795451;80;21055;-68
2023/01/03 02:16:49;;;;;;;8.43;5.30;;;;;;;0.27;92.91;96480.52;1777615;80;21524;-68
2023/01/03 02:19:48;;;;;;;18.10;11.27;;;;;;;0.24;93.05;96480.00;1795140;80;21569;-68
2023/01/03 02:22:43;;;;;;;21.63;13.40;;;;;;;0.10;93.85;96482.50;1795600;80;21505;-68
2023/01/03 02:25:51;;;;;;;14.00;8.60;;;;;;;0.09;93.66;96483.34;1795553;80;20999;-68
2023/01/03 02:28:37;;;;;;;5.33;3.03;;;;;;;0.04;93.06;96484.89;1795489;80;21010;-68
2023/01/03 02:31:40;;;;;;;8.73;3.10;;;;;;;-0.02;93.25;96479.95;1795607;80;21445;-68
2023/01/03 02:34:49;;;;;;;4.83;2.93;;;;;;;-0.04;93.19;96484.62;1795074;80;20975;-69
2023/01/03 02:37:27;;;;;;;3.63;2.73;;;;;;;-0.03;93.42;96485.95;1795543;80;20979;-69
2023/01/03 02:40:18;;;;;;;4.87;3.37;;;;;;;0.02;93.81;96482.66;1795205;80;21460;-69
2023/01/03 02:43:04;;;;;;;30.80;16.80;;;;;;;0.03;93.60;96480.13;1795555;80;21496;-69
2023/01/03 02:46:11;;;;;;;9.20;5.13;;;;;;;0.00;93.73;96477.43;1795348;80;21071;-69
2023/01/03 02:48:55;;;;;;;9.73;6.50;;;;;;;-0.05;93.92;96468.17;1794843;80;21090;-71
2023/01/03 02:51:42;;;;;;;12.63;6.93;;;;;;;-0.12;93.45;96473.09;1795379;80;21015;-69
2023/01/03 02:54:14;;;;;;;13.13;6.40;;;;;;;-0.15;93.48;96468.67;1795197;80;21049;-69
2023/01/03 02:56:49;;;;;;;7.87;4.50;;;;;;;-0.15;93.56;96478.13;1795780;80;21081;-69
2023/01/03 02:59:21;;;;;;;4.57;2.93;;;;;;;-0.11;93.94;96476.14;1795399;80;21140;-69
2023/01/03 03:01:50;;;;;;;4.20;2.83;;;;;;;-0.13;93.41;96481.25;1764200;80;20991;-69
2023/01/03 03:04:19;;;;;;;7.67;3.27;;;;;;;-0.12;93.66;96475.68;1795323;80;21460;-69
2023/01/03 03:07:07;;;;;;;3.70;2.30;;;;;;;-0.10;93.50;96475.30;1795682;80;21046;-69
2023/01/03 03:13:11;;;;;;;6.70;3.30;;;;;;;-0.14;93.07;96485.98;1795184;80;21052;-69
2023/01/03 03:14:53;;;;;;;3.50;2.70;;;;;;;-0.09;93.57;96470.59;1795431;80;20979;-69
2023/01/03 03:17:25;;;;;;;3.23;2.10;;;;;;;-0.08;93.53;96477.54;1795334;80;21062;-69
2023/01/03 03:25:46;;;;;;;10.93;4.87;;;;;;;-0.13;92.99;96472.17;1795530;80;21007;-69
2023/01/03 03:28:35;;;;;;;11.43;5.83;;;;;;;-0.14;93.37;96465.66;1795983;80;21010;-69
2023/01/03 03:31:22;;;;;;;8.47;4.20;;;;;;;-0.13;93.60;96466.11;1795361;80;20999;-69
2023/01/03 03:33:55;;;;;;;8.20;5.03;;;;;;;-0.16;93.42;96466.88;1795287;80;21013;-69
2023/01/03 03:36:35;;;;;;;9.10;5.33;;;;;;;-0.13;93.66;96470.00;1795297;80;21057;-69
2023/01/03 03:39:05;;;;;;;8.77;4.40;;;;;;;-0.17;93.09;96472.91;1795832;80;21051;-69
2023/01/03 03:47:26;;;;;;;3.63;2.67;;;;;;;-0.20;93.20;96475.41;1795716;80;20971;-69
2023/01/03 03:49:59;;;;;;;5.67;3.90;;;;;;;-0.21;93.30;96478.80;1795439;80;20982;-69
2023/01/03 03:52:29;;;;;;;4.50;3.23;;;;;;;-0.20;93.31;96484.86;1795528;80;21030;-70
2023/01/03 03:55:04;;;;;;;7.27;5.03;;;;;;;-0.16;93.51;96490.23;1795569;80;21589;-69
2023/01/03 03:57:39;;;;;;;9.53;5.37;;;;;;;-0.11;93.80;96492.58;1794862;80;21038;-69
2023/01/03 04:00:16;;;;;;;13.93;7.00;;;;;;;-0.10;93.50;96495.66;1795698;80;21006;-69
2023/01/03 04:02:45;;;;;;;14.43;10.50;;;;;;;-0.20;92.70;96495.23;1795540;80;21090;-69
2023/01/03 04:05:17;;;;;;;11.87;8.43;;;;;;;-0.29;92.76;96494.08;1795436;80;21002;-69
2023/01/03 04:07:43;;;;;;;11.53;7.83;;;;;;;-0.28;93.32;96497.16;1795644;80;21042;-69
2023/01/03 04:10:12;;;;;;;5.37;3.50;;;;;;;-0.27;93.51;96489.84;1795479;80;20990;-69
2023/01/03 04:12:39;;;;;;;3.60;2.20;;;;;;;-0.24;93.37;96492.95;1795367;80;20994;-69
2023/01/03 04:15:07;;;;;;;4.77;3.40;;;;;;;-0.22;93.43;96493.91;1795210;80;21556;-69
2023/01/03 04:17:35;;;;;;;4.70;3.33;;;;;;;-0.22;93.42;96493.48;1795589;80;21074;-69
2023/01/03 04:20:01;;;;;;;5.37;3.03;;;;;;;-0.20;93.70;96488.37;1794726;80;21053;-69
2023/01/03 04:22:28;;;;;;;5.67;3.47;;;;;;;-0.23;93.22;96491.73;1795206;80;21090;-69
2023/01/03 04:24:54;;;;;;;7.13;4.57;;;;;;;-0.22;93.44;96496.50;1795219;80;21046;-69
2023/01/03 04:27:21;;;;;;;6.73;3.77;;;;;;;-0.27;92.94;96491.55;1795225;80;21551;-68
2023/01/03 04:29:48;;;;;;;6.20;3.60;;;;;;;-0.31;92.88;96494.42;1795577;80;21437;-69
2023/01/03 04:32:14;;;;;;;6.00;4.60;;;;;;;-0.28;93.50;96490.67;1795308;80;21497;-69
2023/01/03 04:34:41;;;;;;;25.73;12.53;;;;;;;-0.28;93.49;96498.45;1795117;80;21512;-69
2023/01/03 04:37:08;;;;;;;22.10;11.50;;;;;;;-0.34;92.92;96499.51;1795197;80;21551;-69
2023/01/03 04:39:34;;;;;;;6.07;4.60;;;;;;;-0.32;93.32;96498.28;1794963;80;21030;-69
2023/01/03 04:44:00;;;;;;;4.57;3.07;;;;;;;-0.29;93.43;96497.09;1795654;80;20991;-69
2023/01/03 04:44:29;;;;;;;10.27;5.87;;;;;;;-0.33;92.99;96502.59;1790941;80;21003;-69
2023/01/03 04:46:56;;;;;;;13.97;7.70;;;;;;;-0.37;93.02;96511.48;1795214;80;20999;-69
2023/01/03 04:49:23;;;;;;;11.47;6.97;;;;;;;-0.39;93.34;96506.64;1795105;80;21505;-70
2023/01/03 04:51:50;;;;;;;6.67;3.87;;;;;;;-0.38;93.58;96501.92;1795564;80;21042;-69
2023/01/03 04:54:16;;;;;;;4.73;2.47;;;;;;;-0.39;93.25;96499.75;1795248;80;21504;-69
2023/01/03 04:56:43;;;;;;;3.47;2.40;;;;;;;-0.38;93.30;96503.22;1795686;80;21026;-69
2023/01/03 04:59:10;;;;;;;7.03;4.30;;;;;;;-0.37;93.42;96504.58;1795198;80;21065;-69
2023/01/03 05:01:36;;;;;;;3.73;2.67;;;;;;;-0.38;93.28;96502.80;1795004;80;21019;-69
2023/01/03 05:04:04;;;;;;;8.40;4.97;;;;;;;-0.36;93.35;96495.09;1795176;80;21496;-69
2023/01/03 05:06:30;;;;;;;7.17;4.67;;;;;;;-0.33;93.81;96499.09;1795461;80;21351;-69
2023/01/03 05:08:57;;;;;;;3.50;2.80;;;;;;;-0.28;93.79;96498.84;1795422;80;21038;-68
2023/01/03 05:11:23;;;;;;;7.10;4.17;;;;;;;-0.28;93.76;96507.53;1795560;80;21030;-69
2023/01/03 05:13:50;;;;;;;8.00;4.63;;;;;;;-0.26;93.77;96508.87;1795510;80;21537;-68
2023/01/03 05:16:17;;;;;;;8.63;5.50;;;;;;;-0.24;93.98;96502.03;1795408;80;21469;-69
2023/01/03 05:18:44;;;;;;;9.43;6.00;;;;;;;-0.20;93.96;96502.64;1795759;80;20990;-69
2023/01/03 05:26:51;;;;;;;15.43;8.27;;;;;;;-0.26;93.62;96509.75;1795230;80;21070;-68
2023/01/03 05:29:20;;;;;;;24.00;13.37;;;;;;;-0.30;93.22;96506.59;1795103;80;21086;-69
2023/01/03 05:31:47;;;;;;;16.60;10.13;;;;;;;-0.38;92.93;96513.59;1795650;80;21010;-69
2023/01/03 05:34:14;;;;;;;10.73;7.30;;;;;;;-0.38;93.35;96514.47;1795448;80;21030;-69
2023/01/03 05:36:41;;;;;;;8.10;5.03;;;;;;;-0.38;93.41;96517.48;1795242;80;21010;-69
2023/01/03 05:39:08;;;;;;;7.53;3.93;;;;;;;-0.34;93.76;96519.38;1795548;80;20962;-69
2023/01/03 05:44:21;;;;;;;10.97;6.37;;;;;;;-0.31;93.79;96520.36;1795178;80;21006;-69
2023/01/03 05:46:48;;;;;;;6.03;3.37;;;;;;;-0.32;93.75;96515.13;1795515;80;21477;-69
2023/01/03 05:49:14;;;;;;;4.97;2.87;;;;;;;-0.31;93.75;96522.95;1795134;80;21038;-69
2023/01/03 05:51:41;;;;;;;5.10;3.00;;;;;;;-0.29;93.71;96523.02;1795397;80;20983;-69
2023/01/03 05:54:17;;;;;;;8.50;5.47;;;;;;;-0.27;93.81;96526.14;1795506;80;21098;-69
2023/01/03 05:56:43;;;;;;;8.83;5.33;;;;;;;-0.29;93.09;96529.51;1795250;80;21057;-69
2023/01/03 05:59:11;;;;;;;16.00;11.03;;;;;;;-0.38;92.83;96528.72;1795486;80;21049;-69
2023/01/03 06:01:37;;;;;;;6.33;4.40;;;;;;;-0.36;93.36;96532.69;1795458;80;20990;-69
2023/01/03 06:04:04;;;;;;;3.97;3.13;;;;;;;-0.36;93.23;96530.09;1795376;80;21536;-69
2023/01/03 06:06:30;;;;;;;9.87;3.83;;;;;;;-0.35;93.37;96533.14;1795274;80;21568;-69
2023/01/03 06:08:59;;;;;;;7.03;4.30;;;;;;;-0.35;93.35;96535.35;1795563;80;20955;-69
2023/01/03 06:11:26;;;;;;;23.23;13.30;;;;;;;-0.39;93.39;96545.12;1795352;80;20993;-69
2023/01/03 06:13:52;;;;;;;20.60;10.87;;;;;;;-0.41;93.59;96542.00;1795511;80;21429;-69
2023/01/03 06:19:07;;;;;;;18.90;11.87;;;;;;;-0.44;93.50;96544.06;1795019;80;21129;-69
2023/01/03 06:21:34;;;;;;;5.23;3.43;;;;;;;-0.41;93.73;96557.14;1790166;80;20963;-69
2023/01/03 06:24:01;;;;;;;9.00;5.40;;;;;;;-0.38;93.75;96555.95;1795150;80;20987;-69
2023/01/03 06:26:28;;;;;;;11.07;6.93;;;;;;;-0.36;93.75;96553.43;1795352;80;21476;-69
2023/01/03 06:28:55;;;;;;;7.90;3.77;;;;;;;-0.38;93.50;96561.13;1795393;80;21086;-69
2023/01/03 06:31:22;;;;;;;35.43;21.27;;;;;;;-0.35;93.76;96557.78;1795532;80;21457;-69
2023/01/03 06:33:48;;;;;;;20.80;12.13;;;;;;;-0.38;93.46;96558.55;1795152;80;21109;-69
2023/01/03 06:36:18;;;;;;;10.23;7.20;;;;;;;-0.38;93.54;96564.14;1795490;80;21041;-69
2023/01/03 06:38:45;;;;;;;24.70;16.03;;;;;;;-0.36;93.79;96562.50;1795304;80;21074;-69
2023/01/03 06:41:14;;;;;;;16.23;10.23;;;;;;;-0.35;93.62;96563.87;1795559;80;20983;-69
2023/01/03 06:43:41;;;;;;;6.63;4.47;;;;;;;-0.35;93.60;96571.66;1795509;80;21468;-69
2023/01/03 06:54:33;;;;;;;102.77;51.30;;;;;;;-0.29;94.08;96570.58;1795529;80;20959;-69
2023/01/03 06:57:04;;;;;;;13.50;8.50;;;;;;;-0.17;94.27;96564.99;1795350;80;21007;-69
2023/01/03 06:59:31;;;;;;;48.10;27.27;;;;;;;-0.02;94.33;96569.88;1795103;80;21067;-69
2023/01/03 07:01:57;;;;;;;35.13;18.20;;;;;;;0.13;94.71;96565.69;1795460;80;20971;-69
2023/01/03 07:04:25;;;;;;;61.10;33.57;;;;;;;0.27;94.92;96564.45;1795394;80;21397;-68
2023/01/03 07:06:52;;;;;;;68.17;36.10;;;;;;;0.35;94.70;96556.56;1795164;80;21072;-69
2023/01/03 07:09:18;;;;;;;57.80;31.20;;;;;;;0.48;94.74;96565.67;1795456;80;21053;-70
2023/01/03 07:11:45;;;;;;;32.27;19.37;;;;;;;0.59;94.64;96573.83;1795419;80;20983;-70
2023/01/03 07:14:12;;;;;;;23.83;13.43;;;;;;;0.73;94.79;96572.62;1795462;80;21584;-69
2023/01/03 07:16:44;;;;;;;33.17;19.93;;;;;;;0.88;94.95;96573.53;1795522;80;20978;-68
2023/01/03 07:19:17;;;;;;;44.17;26.90;;;;;;;1.04;95.11;96577.56;1790384;80;20963;-68
2023/01/03 07:21:44;;;;;;;45.63;24.43;;;;;;;1.17;94.83;96580.16;1795161;80;20955;-69
2023/01/03 07:24:14;;;;;;;33.73;17.77;;;;;;;1.21;94.19;96575.50;1795469;80;20995;-68
2023/01/03 07:26:41;;;;;;;93.07;50.70;;;;;;;1.35;94.57;96575.55;1795421;80;20970;-68
2023/01/03 07:29:09;;;;;;;50.07;26.80;;;;;;;1.48;94.78;96575.53;1795361;80;21564;-69
2023/01/03 07:31:39;;;;;;;74.33;39.23;;;;;;;1.58;94.66;96577.59;1795376;80;20998;-69
2023/01/03 07:34:07;;;;;;;61.10;32.07;;;;;;;1.74;94.78;96585.48;1795485;80;21002;-69
2023/01/03 07:36:34;;;;;;;50.83;29.40;;;;;;;1.92;94.94;96587.77;1789796;80;20987;-68
2023/01/03 07:39:00;;;;;;;55.00;31.03;;;;;;;2.06;94.80;96576.45;1795484;80;21521;-68
2023/01/03 07:43:35;;;;;;;55.43;31.37;;;;;;;2.15;94.71;96581.95;1795110;80;21091;-68
2023/01/03 07:43:58;;;;;;;31.90;20.27;;;;;;;2.24;94.65;96582.20;1789896;80;21074;-69
2023/01/03 07:46:27;;;;;;;31.00;19.70;;;;;;;2.34;94.62;96580.36;1795402;80;21026;-69
2023/01/03 07:49:01;;;;;;;27.53;19.07;;;;;;;2.46;94.68;96581.53;1795110;80;21476;-69
2023/01/03 07:51:26;;;;;;;32.78;21.70;;;;;;;2.55;94.33;96585.72;1795256;80;20991;-70
2023/01/03 07:53:53;;;;;;;34.73;22.87;;;;;;;2.60;94.09;96578.48;1795312;80;21093;-69
2023/01/03 07:56:23;;;;;;;43.27;27.97;;;;;;;2.71;94.38;96572.68;1790618;80;20998;-69
2023/01/03 07:58:50;;;;;;;36.30;24.97;;;;;;;2.80;94.09;96580.77;1787231;80;20979;-68
2023/01/03 08:01:21;;;;;;;33.97;24.00;;;;;;;2.90;94.15;96576.66;1786796;80;21082;-69
2023/01/03 08:03:49;;;;;;;30.67;21.30;;;;;;;3.01;94.29;96572.63;1786899;80;21521;-69
2023/01/03 08:06:19;;;;;;;30.83;20.43;;;;;;;3.12;93.98;96570.28;1786613;80;21114;-68
2023/01/03 08:13:16;;;;;;;28.83;19.40;;;;;;;3.29;94.42;96569.42;1787028;80;21074;-69
2023/01/03 08:13:59;;;;;;;26.13;17.23;;;;;;;3.55;94.38;96560.49;1780913;80;20987;-69
2023/01/03 08:16:26;;;;;;;37.80;19.93;;;;;;;3.73;94.40;96561.38;1787152;80;20999;-69
2023/01/03 08:18:53;;;;;;;54.57;25.33;;;;;;;3.87;94.16;96558.64;1787087;80;20999;-69
2023/01/03 08:21:20;;;;;;;53.27;23.40;;;;;;;4.01;94.08;96559.41;1786819;80;21046;-69
2023/01/03 08:23:47;;;;;;;32.43;19.17;;;;;;;4.12;93.71;96561.81;1787006;80;21544;-70
2023/01/03 08:26:16;;;;;;;31.63;18.50;;;;;;;4.25;93.58;96559.91;1786893;80;21086;-70
2023/01/03 08:28:44;;;;;;;54.03;35.30;;;;;;;4.39;93.29;96567.19;1787200;80;21068;-69
2023/01/03 08:31:17;;;;;;;48.33;30.60;;;;;;;4.50;93.10;96576.98;1787146;80;21475;-69
2023/01/03 08:33:52;;;;;;;26.30;17.80;;;;;;;4.60;92.95;96574.14;1787212;80;21032;-69
2023/01/03 08:36:20;;;;;;;24.00;16.70;;;;;;;4.69;92.68;96572.16;1785132;80;21054;-70
2023/01/03 08:38:57;;;;;;;25.47;17.73;;;;;;;4.73;92.39;96575.27;1787209;80;21015;-69
2023/01/03 08:41:27;;;;;;;31.67;18.60;;;;;;;4.73;92.00;96570.91;1787076;80;21007;-70
2023/01/03 08:43:55;;;;;;;28.93;19.50;;;;;;;4.77;91.92;96571.87;1787223;80;20987;-69
2023/01/03 08:46:21;;;;;;;29.13;19.63;;;;;;;4.84;91.83;96572.85;1787224;80;21042;-69
2023/01/03 08:48:48;;;;;;;31.27;19.50;;;;;;;4.97;92.44;96579.67;1786868;80;21083;-69
2023/01/03 08:51:15;;;;;;;32.13;20.47;;;;;;;5.09;91.58;96576.81;1787074;80;21093;-69
2023/01/03 08:53:41;;;;;;;34.53;21.83;;;;;;;5.15;91.26;96579.13;1787085;80;21002;-69
2023/01/03 08:56:08;;;;;;;30.17;20.20;;;;;;;5.24;91.63;96573.19;1790099;80;21014;-70
2023/01/03 08:58:34;;;;;;;35.57;23.70;;;;;;;5.38;91.71;96578.22;1795499;80;21492;-69
2023/01/03 09:01:03;;;;;;;27.53;19.37;;;;;;;5.48;91.61;96583.19;1795114;80;21046;-69
2023/01/03 09:03:30;;;;;;;35.07;21.53;;;;;;;5.53;91.25;96577.60;1795443;80;21006;-69
2023/01/03 09:06:00;;;;;;;27.87;21.07;;;;;;;5.56;91.28;96584.19;1795166;80;21022;-69
2023/01/03 09:08:33;;;;;;;28.60;20.50;;;;;;;5.59;91.00;96575.11;1795460;80;21025;-69
2023/01/03 09:11:05;;;;;;;31.90;22.17;;;;;;;5.63;90.95;96578.20;1795395;80;21026;-69
2023/01/03 09:13:32;;;;;;;29.00;20.50;;;;;;;5.68;90.98;96575.67;1796133;80;21014;-69
2023/01/03 09:16:07;;;;;;;28.53;19.53;;;;;;;5.72;90.76;96572.25;1795281;80;21102;-69
2023/01/03 09:18:35;;;;;;;35.93;23.73;;;;;;;5.67;90.06;96579.55;1795530;80;20982;-69
2023/01/03 09:21:03;;;;;;;36.67;23.60;;;;;;;5.57;89.55;96578.13;1795051;80;21008;-69
2023/01/03 09:23:32;;;;;;;35.60;23.93;;;;;;;5.57;90.08;96573.31;1795474;80;21015;-69
2023/01/03 09:25:58;;;;;;;35.63;24.50;;;;;;;5.59;90.12;96579.03;1795444;80;21030;-69
2023/01/03 09:28:25;;;;;;;38.00;27.03;;;;;;;5.66;90.30;96569.95;1795301;80;20986;-69
2023/01/03 09:30:53;;;;;;;38.40;27.73;;;;;;;5.69;90.27;96568.25;1795224;80;21075;-69
2023/01/03 09:33:20;;;;;;;35.70;26.30;;;;;;;5.71;90.15;96565.23;1795689;80;20986;-69
2023/01/03 09:35:46;;;;;;;33.47;24.10;;;;;;;5.72;90.01;96564.39;1795222;80;21003;-69
2023/01/03 09:38:13;;;;;;;36.83;24.37;;;;;;;5.72;89.80;96564.39;1795063;80;21079;-69
2023/01/03 09:40:44;;;;;;;33.80;24.63;;;;;;;5.70;89.60;96557.38;1795164;80;21090;-70
2023/01/03 09:43:18;;;;;;;64.53;42.53;;;;;;;5.69;89.41;96560.39;1795465;80;21413;-71
2023/01/03 09:45:52;;;;;;;50.67;34.77;;;;;;;5.68;89.52;96564.32;1795421;80;21113;-70
2023/01/03 09:48:26;;;;;;;35.00;25.25;;;;;;;5.70;89.90;96559.56;1795389;80;20971;-70
2023/01/03 09:50:53;;;;;;;32.77;24.17;;;;;;;5.74;89.96;96559.16;1795447;80;21022;-68
2023/01/03 10:05:34;;;;;;;26.10;19.80;;;;;;;6.05;90.13;96547.02;1795482;80;21117;-69
2023/01/03 10:08:41;;;;;;;28.13;21.67;;;;;;;6.11;90.14;96547.53;1795400;80;20986;-69
2023/01/03 10:11:25;;;;;;;32.87;24.30;;;;;;;6.14;89.75;96543.64;1794837;80;21015;-69
2023/01/03 10:14:09;;;;;;;32.93;23.27;;;;;;;6.18;90.12;96540.21;1749160;80;21002;-69
2023/01/03 10:17:17;;;;;;;53.90;37.43;;;;;;;6.26;90.33;96546.42;1795221;80;21063;-68
2023/01/03 10:19:52;;;;;;;55.07;34.27;;;;;;;6.33;90.38;96546.09;1795217;80;21480;-69
2023/01/03 10:22:28;;;;;;;66.57;39.47;;;;;;;6.42;90.26;96541.38;1795319;80;21106;-69
2023/01/03 10:25:21;;;;;;;60.97;38.20;;;;;;;6.49;90.40;96536.67;1790236;80;21113;-69
2023/01/03 10:27:56;;;;;;;45.80;30.03;;;;;;;6.54;90.07;96534.11;1795391;80;21488;-69
2023/01/03 10:30:33;;;;;;;45.47;27.90;;;;;;;6.56;89.97;96533.27;1793958;80;21022;-69
2023/01/03 10:33:30;;;;;;;37.83;26.63;;;;;;;6.61;90.06;96536.83;1795437;80;21038;-68
2023/01/03 10:35:57;;;;;;;37.40;23.87;;;;;;;6.65;90.05;96538.63;1789653;80;21051;-69
2023/01/03 10:38:24;;;;;;;44.37;28.50;;;;;;;6.68;89.81;96533.42;1794908;80;21042;-69
2023/01/03 10:40:57;;;;;;;48.37;31.77;;;;;;;6.66;89.42;96529.89;1795531;80;20983;-69
2023/01/03 10:43:42;;;;;;;55.90;35.35;;;;;;;6.68;89.47;96527.30;1795649;80;20971;-69
2023/01/03 10:46:20;;;;;;;48.50;33.50;;;;;;;6.70;89.61;96529.08;1795388;80;20998;-69
2023/01/03 10:48:50;;;;;;;50.57;34.13;;;;;;;6.78;89.89;96529.16;1795489;80;21070;-69
2023/01/03 10:51:43;;;;;;;41.50;29.80;;;;;;;6.82;89.48;96520.44;1795356;80;21476;-69
2023/01/03 10:54:19;;;;;;;47.17;30.92;;;;;;;6.88;89.41;96519.66;1794430;80;21074;-69
2023/01/03 10:56:49;;;;;;;30.20;22.07;;;;;;;6.93;89.42;96516.64;1769906;80;20991;-69
2023/01/03 10:59:29;;;;;;;34.37;22.43;;;;;;;7.03;89.44;96513.25;1795455;80;21018;-69
2023/01/03 11:02:13;;;;;;;65.43;41.20;;;;;;;7.08;89.40;96508.02;1795442;80;21513;-68
2023/01/03 11:04:41;;;;;;;75.87;49.67;;;;;;;7.19;89.70;96500.27;1795111;80;21493;-68
2023/01/03 11:07:11;;;;;;;94.00;56.63;;;;;;;;;;1795180;80;21029;-69
2023/01/03 11:09:49;;;;;;;71.80;44.23;;;;;;;7.52;89.74;96495.28;1795560;80;21042;-69
2023/01/03 11:12:37;;;;;;;78.15;49.55;;;;;;;7.82;90.21;96488.50;1795408;80;20966;-69
2023/01/03 11:15:18;;;;;;;60.73;38.28;;;;;;;8.77;92.00;96474.92;1795426;80;21079;-69
2023/01/03 11:18:01;;;;;;;21.30;16.17;;;;;;;9.44;90.87;96473.69;1795438;80;21066;-69
2023/01/03 11:20:51;;;;;;;18.05;14.13;;;;;;;9.89;88.70;96462.67;1795230;80;20975;-68
2023/01/03 11:23:35;;;;;;;16.00;12.37;;;;;;;10.59;86.28;96458.08;1795289;80;20963;-68
2023/01/03 11:26:22;;;;;;;17.92;12.05;;;;;;;11.21;81.91;96455.93;1795114;80;21098;-68
2023/01/03 11:29:21;;;;;;;13.53;9.85;;;;;;;11.95;80.50;96448.73;1794872;80;20991;-68
2023/01/03 11:32:02;;;;;;;14.47;11.57;;;;;;;13.20;74.88;96434.30;1795364;80;21548;-68
2023/01/03 11:34:53;;;;;;;14.60;11.35;;;;;;;13.20;74.88;96434.30;1795453;80;20955;-68
2023/01/03 11:37:40;;;;;;;13.90;10.25;;;;;;;13.54;72.46;96432.03;1795350;80;21050;-68
2023/01/03 11:40:33;;;;;;;12.70;11.10;;;;;;;13.78;68.82;96430.75;1760944;80;20998;-68
2023/01/03 11:43:32;;;;;;;15.98;12.23;;;;;;;14.05;67.26;96434.66;1759602;80;20981;-68
2023/01/03 11:46:19;;;;;;;13.68;11.18;;;;;;;14.22;67.79;96428.16;1726451;83;21058;-68
2023/01/03 11:49:06;;;;;;;14.33;11.15;;;;;;;14.25;66.84;96430.75;1788828;80;21529;-68
2023/01/03 11:51:50;;;;;;;16.30;11.48;;;;;;;14.18;63.39;96428.66;1795779;80;20955;-68
2023/01/03 11:54:46;;;;;;;13.80;10.80;;;;;;;13.93;64.90;96437.53;1795069;80;21027;-69
2023/01/03 11:57:24;;;;;;;12.85;9.48;;;;;;;13.65;65.41;96435.82;1791506;80;21007;-68
2023/01/03 12:00:23;;;;;;;12.70;9.65;;;;;;;13.48;65.02;96440.11;1781475;80;21018;-68
2023/01/03 12:03:03;;;;;;;9.93;8.08;;;;;;;13.23;64.96;96434.28;1786439;80;21051;-68
2023/01/03 12:06:00;;;;;;;10.95;8.33;;;;;;;13.16;66.37;96437.92;1772888;80;21062;-68
2023/01/03 12:08:34;;;;;;;10.00;7.47;;;;;;;12.96;66.19;96431.59;1787131;80;21003;-68
2023/01/03 12:11:16;;;;;;;9.50;7.10;;;;;;;13.19;66.62;96432.57;1786569;80;21130;-68
2023/01/03 12:14:18;;;;;;;10.75;8.28;;;;;;;13.60;65.76;96429.27;1781593;80;21019;-68
2023/01/03 12:16:53;;;;;;;11.93;7.60;;;;;;;14.10;65.25;96425.28;1785537;80;21041;-68
2023/01/03 12:19:59;;;;;;;9.33;7.70;;;;;;;14.51;60.48;96426.23;1787167;80;21006;-68
2023/01/03 12:22:36;;;;;;;8.90;7.58;;;;;;;14.60;60.39;96414.13;1786862;80;21003;-68
2023/01/03 12:25:32;;;;;;;9.65;7.67;;;;;;;14.49;61.13;96420.10;1787386;80;20991;-68
2023/01/03 12:28:11;;;;;;;9.90;7.67;;;;;;;14.63;61.63;96419.83;1786743;80;21500;-68
2023/01/03 12:30:49;;;;;;;11.53;8.60;;;;;;;14.66;61.24;96419.30;1787058;80;21117;-68
2023/01/03 12:33:33;;;;;;;12.03;9.25;;;;;;;14.36;60.07;96434.05;1786891;80;21063;-68
2023/01/03 12:36:11;;;;;;;15.38;9.28;;;;;;;13.82;60.97;96432.88;1786897;80;21521;-68
2023/01/03 12:38:43;;;;;;;17.62;11.30;;;;;;;13.00;62.56;96439.91;1786695;80;20976;-68
2023/01/03 12:41:49;;;;;;;12.20;10.30;;;;;;;12.36;64.38;96444.30;1787539;80;20999;-68
2023/01/03 12:44:27;;;;;;;13.58;9.98;;;;;;;11.84;65.73;96447.46;1786087;80;21026;-68
2023/01/03 12:46:55;;;;;;;18.87;12.85;;;;;;;11.16;68.45;96454.67;1786331;80;21011;-68
2023/01/03 12:49:36;;;;;;;16.82;11.12;;;;;;;10.90;69.08;96449.54;1787121;80;21450;-68
2023/01/03 12:52:03;;;;;;;15.32;10.60;;;;;;;10.69;69.65;96453.64;1786902;80;20979;-68
2023/01/03 12:54:44;;;;;;;12.95;9.30;;;;;;;10.52;70.32;96451.08;1786623;80;20987;-67
2023/01/03 12:57:44;;;;;;;13.72;9.38;;;;;;;10.37;71.10;96452.02;1786587;80;21126;-68